createdAt,value
2023-12-15T00:01:27.338Z,78.66
2023-12-15T00:03:56.113Z,78.67
2023-12-15T00:06:23.938Z,78.79
2023-12-15T00:08:51.353Z,78.29
2023-12-15T00:11:20.077Z,77.88
2023-12-15T00:13:47.622Z,78.13
2023-12-15T00:16:15.064Z,77.55
2023-12-15T00:18:43.884Z,77.87
2023-12-15T00:21:11.398Z,77.97
2023-12-15T00:23:38.847Z,78.19
2023-12-15T00:26:07.981Z,78.14
2023-12-15T00:28:35.429Z,78.32
2023-12-15T00:31:02.930Z,78.53
2023-12-15T00:33:31.726Z,78.80
2023-12-15T00:35:59.229Z,78.72
2023-12-15T00:38:26.628Z,78.34
2023-12-15T00:40:55.332Z,78.17
2023-12-15T00:43:22.898Z,78.06
2023-12-15T00:45:50.308Z,78.07
2023-12-15T00:48:19.525Z,78.20
2023-12-15T00:50:47.081Z,78.41
2023-12-15T00:53:16.853Z,78.66
2023-12-15T00:55:44.297Z,78.72
2023-12-15T00:58:11.778Z,78.83
2023-12-15T01:00:40.477Z,78.78
2023-12-15T01:03:07.963Z,78.77
2023-12-15T01:05:35.545Z,78.70
2023-12-15T01:08:04.440Z,78.74
2023-12-15T01:10:32.073Z,78.92
2023-12-15T01:12:59.879Z,79.04
2023-12-15T01:15:28.559Z,79.01
2023-12-15T01:17:57.703Z,78.94
2023-12-15T01:20:26.951Z,78.96
2023-12-15T01:22:54.595Z,78.85
2023-12-15T01:25:22.058Z,78.91
2023-12-15T01:27:50.714Z,78.64
2023-12-15T01:30:18.167Z,78.74
2023-12-15T01:32:46.106Z,78.92
2023-12-15T01:35:14.896Z,78.72
2023-12-15T01:37:42.308Z,78.83
2023-12-15T01:40:09.769Z,78.83
2023-12-15T01:42:38.489Z,78.45
2023-12-15T01:45:06.101Z,78.42
2023-12-15T01:47:33.680Z,78.03
2023-12-15T01:50:02.711Z,77.98
2023-12-15T01:52:30.657Z,77.82
2023-12-15T01:54:58.104Z,78.21
2023-12-15T01:57:26.869Z,78.19
2023-12-15T01:59:54.916Z,78.35
2023-12-15T02:02:24.690Z,78.67
2023-12-15T02:04:52.229Z,78.69
2023-12-15T02:07:19.781Z,78.78
2023-12-15T02:09:48.469Z,78.82
2023-12-15T02:12:15.895Z,78.74
2023-12-15T02:14:43.681Z,78.70
2023-12-15T02:17:12.434Z,78.49
2023-12-15T02:19:39.928Z,78.66
2023-12-15T02:22:07.372Z,78.64
2023-12-15T02:24:36.075Z,78.68
2023-12-15T02:27:03.558Z,78.74
2023-12-15T02:29:31.052Z,78.98
2023-12-15T02:31:59.854Z,78.82
2023-12-15T02:34:27.760Z,78.76
2023-12-15T02:36:55.454Z,78.76
2023-12-15T02:39:24.203Z,78.77
2023-12-15T02:41:51.632Z,78.82
2023-12-15T02:44:19.161Z,78.77
2023-12-15T02:46:47.869Z,78.69
2023-12-15T02:49:15.533Z,78.67
2023-12-15T02:51:43.103Z,78.64
2023-12-15T02:54:12.136Z,78.65
2023-12-15T02:56:39.563Z,78.73
2023-12-15T02:59:07.134Z,78.71
2023-12-15T03:01:36.155Z,78.88
2023-12-15T03:04:03.560Z,79.06
2023-12-15T03:06:31.007Z,79.45
2023-12-15T03:08:59.720Z,79.77
2023-12-15T03:11:27.216Z,79.93
2023-12-15T03:13:54.736Z,80.01
2023-12-15T03:16:23.877Z,80.24
2023-12-15T03:18:51.304Z,80.25
2023-12-15T03:21:18.812Z,80.35
2023-12-15T03:23:47.637Z,80.42
2023-12-15T03:26:15.095Z,80.35
2023-12-15T03:28:42.536Z,80.27
2023-12-15T03:31:11.253Z,80.10
2023-12-15T03:33:38.730Z,80.15
2023-12-15T03:36:06.179Z,79.98
2023-12-15T03:38:34.818Z,80.00
2023-12-15T03:41:02.308Z,80.10
2023-12-15T03:43:29.816Z,80.03
2023-12-15T03:45:58.574Z,80.17
2023-12-15T03:48:26.021Z,80.07
2023-12-15T03:50:53.611Z,80.09
2023-12-15T03:53:22.320Z,80.17
2023-12-15T03:55:49.864Z,80.13
2023-12-15T03:58:17.718Z,80.17
2023-12-15T04:00:46.580Z,80.34
2023-12-15T04:03:14.097Z,80.42
2023-12-15T04:05:41.666Z,80.49
2023-12-15T04:08:10.469Z,80.65
2023-12-15T04:10:37.893Z,80.66
2023-12-15T04:13:05.398Z,80.78
2023-12-15T04:15:34.165Z,80.85
2023-12-15T04:18:01.782Z,80.89
2023-12-15T04:20:29.629Z,80.83
2023-12-15T04:22:58.362Z,80.77
2023-12-15T04:25:25.965Z,80.89
2023-12-15T04:27:53.431Z,80.92
2023-12-15T04:30:22.280Z,81.03
2023-12-15T04:32:49.716Z,81.21
2023-12-15T04:35:17.184Z,81.44
2023-12-15T04:37:45.956Z,81.47
2023-12-15T04:40:13.534Z,81.66
2023-12-15T04:42:40.994Z,81.81
2023-12-15T04:45:09.757Z,81.98
2023-12-15T04:47:37.499Z,81.97
2023-12-15T04:50:05.312Z,82.10
2023-12-15T04:52:34.140Z,82.05
2023-12-15T04:55:01.648Z,82.00
2023-12-15T04:57:29.051Z,82.03
2023-12-15T04:59:58.066Z,81.98
2023-12-15T05:02:25.567Z,81.96
2023-12-15T05:04:53.021Z,82.04
2023-12-15T05:07:21.796Z,81.85
2023-12-15T05:09:49.243Z,81.86
2023-12-15T05:12:16.718Z,81.78
2023-12-15T05:14:45.386Z,81.72
2023-12-15T05:17:12.866Z,81.71
2023-12-15T05:19:40.314Z,81.73
2023-12-15T05:22:09.407Z,81.90
2023-12-15T05:24:36.825Z,81.86
2023-12-15T05:27:04.302Z,81.84
2023-12-15T05:29:33.113Z,81.98
2023-12-15T05:32:00.613Z,81.90
2023-12-15T05:34:28.073Z,81.85
2023-12-15T05:36:56.791Z,81.66
2023-12-15T05:39:24.618Z,81.69
2023-12-15T05:41:52.068Z,81.64
2023-12-15T05:44:20.846Z,81.71
2023-12-15T05:46:48.386Z,81.67
2023-12-15T05:49:15.981Z,81.53
2023-12-15T05:51:44.817Z,81.56
2023-12-15T05:54:12.261Z,81.60
2023-12-15T05:56:39.722Z,81.55
2023-12-15T05:59:08.467Z,81.50
2023-12-15T06:01:36.277Z,81.51
2023-12-15T06:04:03.721Z,81.41
2023-12-15T06:06:32.563Z,81.57
2023-12-15T06:09:00.017Z,81.49
2023-12-15T06:11:27.482Z,81.57
2023-12-15T06:13:56.269Z,81.58
2023-12-15T06:16:23.720Z,81.62
2023-12-15T06:18:51.249Z,81.50
2023-12-15T06:21:19.992Z,81.68
2023-12-15T06:23:47.743Z,81.76
2023-12-15T06:26:15.245Z,81.77
2023-12-15T06:28:43.948Z,81.65
2023-12-15T06:31:11.375Z,81.63
2023-12-15T06:33:38.927Z,81.60
2023-12-15T06:36:07.679Z,81.61
2023-12-15T06:38:35.082Z,81.68
2023-12-15T06:41:02.732Z,81.66
2023-12-15T06:43:31.819Z,81.77
2023-12-15T06:45:59.263Z,81.59
2023-12-15T06:48:26.672Z,81.42
2023-12-15T06:50:55.563Z,81.50
2023-12-15T06:53:23.046Z,81.46
2023-12-15T06:55:50.611Z,81.33
2023-12-15T06:58:19.346Z,81.24
2023-12-15T07:00:46.817Z,81.19
2023-12-15T07:03:14.288Z,80.98
2023-12-15T07:05:43.102Z,80.99
2023-12-15T07:08:10.645Z,80.95
2023-12-15T07:10:38.101Z,80.94
2023-12-15T07:13:06.790Z,80.95
2023-12-15T07:15:34.232Z,80.91
2023-12-15T07:18:01.711Z,80.97
2023-12-15T07:20:30.442Z,80.85
2023-12-15T07:22:57.938Z,80.85
2023-12-15T07:25:25.471Z,80.83
2023-12-15T07:27:54.187Z,80.72
2023-12-15T07:30:21.663Z,80.74
2023-12-15T07:32:49.332Z,80.77
2023-12-15T07:35:28.733Z,80.60
2023-12-15T07:38:02.466Z,80.37
2023-12-15T07:40:29.918Z,80.43
2023-12-15T07:42:57.513Z,80.50
2023-12-15T07:45:26.304Z,80.31
2023-12-15T07:47:53.927Z,80.23
2023-12-15T07:50:21.666Z,80.19
2023-12-15T07:52:50.428Z,80.07
2023-12-15T07:55:17.880Z,79.98
2023-12-15T07:57:45.315Z,79.79
2023-12-15T08:00:14.188Z,79.66
2023-12-15T08:02:41.729Z,79.55
2023-12-15T08:05:09.185Z,79.36
2023-12-15T08:07:38.334Z,79.31
2023-12-15T08:10:06.299Z,79.22
2023-12-15T08:12:33.757Z,79.08
2023-12-15T08:15:02.559Z,78.82
2023-12-15T08:17:30.106Z,78.59
2023-12-15T08:19:57.682Z,78.42
2023-12-15T08:22:26.433Z,78.23
2023-12-15T08:24:53.928Z,78.08
2023-12-15T08:27:21.369Z,77.93
2023-12-15T08:29:50.472Z,77.83
2023-12-15T08:32:17.942Z,77.68
2023-12-15T08:34:45.477Z,77.73
2023-12-15T08:37:14.259Z,77.32
2023-12-15T08:39:41.688Z,77.06
2023-12-15T08:42:09.201Z,76.92
2023-12-15T08:44:37.933Z,76.83
2023-12-15T08:47:05.452Z,76.84
2023-12-15T08:49:33.306Z,76.76
2023-12-15T08:52:02.079Z,76.52
2023-12-15T08:54:29.532Z,76.44
2023-12-15T08:56:57.210Z,76.14
2023-12-15T08:59:26.146Z,76.16
2023-12-15T09:01:53.640Z,76.01
2023-12-15T09:04:21.082Z,76.01
2023-12-15T09:06:51.795Z,76.00
2023-12-15T09:09:20.481Z,75.69
2023-12-15T09:11:49.620Z,75.55
2023-12-15T09:14:17.330Z,75.66
2023-12-15T09:16:44.879Z,75.68
2023-12-15T09:19:13.658Z,75.73
2023-12-15T09:21:41.172Z,75.53
2023-12-15T09:24:10.621Z,75.18
2023-12-15T09:26:39.692Z,75.25
2023-12-15T09:29:07.211Z,75.42
2023-12-15T09:31:34.681Z,75.00
2023-12-15T09:34:03.868Z,75.24
2023-12-15T09:36:31.427Z,74.77
2023-12-15T09:39:01.067Z,74.45
2023-12-15T09:41:31.245Z,74.22
2023-12-15T09:43:58.746Z,74.17
2023-12-15T09:46:26.166Z,74.05
2023-12-15T09:48:54.805Z,74.14
2023-12-15T09:51:22.387Z,73.86
2023-12-15T09:53:50.179Z,73.68
2023-12-15T09:56:18.940Z,73.62
2023-12-15T09:58:46.550Z,73.57
2023-12-15T10:01:14.063Z,73.54
2023-12-15T10:03:43.092Z,73.64
2023-12-15T10:06:10.674Z,73.53
2023-12-15T10:08:53.489Z,73.24
2023-12-15T10:11:27.597Z,72.96
2023-12-15T10:13:55.052Z,72.44
2023-12-15T10:16:22.905Z,72.37
2023-12-15T10:18:51.781Z,72.32
2023-12-15T10:21:19.403Z,72.07
2023-12-15T10:23:46.946Z,71.80
2023-12-15T10:26:15.764Z,72.04
2023-12-15T10:28:43.481Z,71.77
2023-12-15T10:31:10.915Z,71.77
2023-12-15T10:33:39.726Z,71.64
2023-12-15T10:36:07.250Z,71.61
2023-12-15T10:38:34.669Z,71.68
2023-12-15T10:41:03.754Z,71.84
2023-12-15T10:43:31.221Z,71.59
2023-12-15T10:46:00.384Z,71.47
2023-12-15T10:48:31.058Z,71.31
2023-12-15T10:50:58.554Z,71.25
2023-12-15T10:53:26.104Z,71.46
2023-12-15T10:55:54.890Z,71.38
2023-12-15T10:58:22.327Z,71.15
2023-12-15T11:00:50.267Z,71.31
2023-12-15T11:03:19.176Z,71.32
2023-12-15T11:05:46.865Z,71.12
2023-12-15T11:08:14.478Z,71.04
2023-12-15T11:10:43.345Z,71.07
2023-12-15T11:13:10.823Z,71.01
2023-12-15T11:15:38.775Z,71.05
2023-12-15T11:18:07.685Z,71.02
2023-12-15T11:20:35.389Z,71.46
2023-12-15T11:23:03.496Z,71.43
2023-12-15T11:25:32.202Z,71.22
2023-12-15T11:27:59.684Z,70.95
2023-12-15T11:30:27.133Z,70.82
2023-12-15T11:32:56.102Z,71.08
2023-12-15T11:35:23.743Z,70.77
2023-12-15T11:37:51.180Z,71.03
2023-12-15T11:40:20.220Z,71.06
2023-12-15T11:42:47.734Z,70.79
2023-12-15T11:45:15.196Z,70.55
2023-12-15T11:47:44.142Z,70.57
2023-12-15T11:50:11.888Z,70.28
2023-12-15T11:52:39.522Z,70.35
2023-12-15T11:55:08.213Z,70.15
2023-12-15T11:57:35.667Z,70.40
2023-12-15T12:00:03.078Z,70.32
2023-12-15T12:02:32.117Z,70.46
2023-12-15T12:04:59.592Z,70.33
2023-12-15T12:07:27.104Z,70.01
2023-12-15T12:09:55.860Z,70.17
2023-12-15T12:12:23.399Z,69.82
2023-12-15T12:14:50.970Z,69.66
2023-12-15T12:17:19.692Z,69.42
2023-12-15T12:19:47.173Z,69.56
2023-12-15T12:22:14.602Z,69.53
2023-12-15T12:24:43.301Z,69.46
2023-12-15T12:27:10.705Z,69.40
2023-12-15T12:29:38.691Z,69.34
2023-12-15T12:32:07.467Z,69.17
2023-12-15T12:34:34.980Z,69.07
2023-12-15T12:37:02.755Z,68.72
2023-12-15T12:39:31.464Z,68.40
2023-12-15T12:41:59.286Z,68.00
2023-12-15T12:44:26.817Z,67.81
2023-12-15T12:46:55.626Z,68.19
2023-12-15T12:49:23.111Z,67.94
2023-12-15T12:51:50.570Z,67.69
2023-12-15T12:54:19.308Z,67.63
2023-12-15T12:56:54.672Z,67.24
2023-12-15T12:59:29.552Z,67.04
2023-12-15T13:02:07.201Z,66.95
2023-12-15T13:04:44.483Z,67.10
2023-12-15T13:07:11.917Z,67.49
2023-12-15T13:09:39.389Z,67.63
2023-12-15T13:12:08.129Z,67.31
2023-12-15T13:14:35.702Z,67.33
2023-12-15T13:17:03.654Z,67.32
2023-12-15T13:19:32.689Z,67.52
2023-12-15T13:22:00.640Z,67.10
2023-12-15T13:24:28.109Z,67.15
2023-12-15T13:26:57.439Z,67.30
2023-12-15T13:29:33.496Z,67.46
2023-12-15T13:32:06.605Z,67.33
2023-12-15T13:34:34.206Z,67.43
2023-12-15T13:37:01.664Z,67.68
2023-12-15T13:39:30.551Z,67.98
2023-12-15T13:41:58.082Z,68.11
2023-12-15T13:44:25.643Z,68.57
2023-12-15T13:46:54.381Z,69.21
2023-12-15T13:49:21.942Z,69.78
2023-12-15T13:51:49.429Z,69.51
2023-12-15T13:54:18.109Z,69.09
2023-12-15T13:56:45.588Z,69.13
2023-12-15T13:59:13.511Z,69.19
2023-12-15T14:01:42.263Z,69.60
2023-12-15T14:04:09.813Z,70.31
2023-12-15T14:06:37.574Z,70.42
2023-12-15T14:09:06.575Z,70.50
2023-12-15T14:11:34.309Z,70.52
2023-12-15T14:14:01.936Z,70.73
2023-12-15T14:16:40.773Z,70.89
2023-12-15T14:19:18.161Z,71.16
2023-12-15T14:21:46.756Z,71.50
2023-12-15T14:24:15.468Z,71.66
2023-12-15T14:26:43.003Z,71.82
2023-12-15T14:29:10.564Z,71.90
2023-12-15T14:31:39.259Z,72.11
2023-12-15T14:34:07.152Z,72.33
2023-12-15T14:36:34.811Z,72.39
2023-12-15T14:39:03.841Z,72.66
2023-12-15T14:41:31.323Z,72.66
2023-12-15T14:43:58.805Z,72.91
2023-12-15T14:46:27.553Z,73.13
2023-12-15T14:48:55.078Z,73.41
2023-12-15T14:51:22.675Z,73.47
2023-12-15T14:53:51.572Z,73.70
2023-12-15T14:56:19.069Z,73.95
2023-12-15T14:58:46.507Z,73.97
2023-12-15T15:01:15.680Z,73.97
2023-12-15T15:03:43.238Z,73.97
2023-12-15T15:06:10.900Z,73.94
2023-12-15T15:08:39.553Z,73.89
2023-12-15T15:11:07.072Z,73.86
2023-12-15T15:13:34.615Z,73.75
2023-12-15T15:16:03.315Z,73.82
2023-12-15T15:18:30.802Z,73.86
2023-12-15T15:20:58.279Z,73.84
2023-12-15T15:23:27.096Z,73.88
2023-12-15T15:25:54.922Z,73.78
2023-12-15T15:28:22.399Z,73.77
2023-12-15T15:30:51.109Z,73.55
2023-12-15T15:33:18.732Z,73.70
2023-12-15T15:35:46.151Z,73.88
2023-12-15T15:38:14.904Z,74.12
2023-12-15T15:40:42.349Z,74.22
2023-12-15T15:43:09.963Z,74.44
2023-12-15T15:45:38.810Z,74.50
2023-12-15T15:48:08.327Z,74.75
2023-12-15T15:50:37.445Z,74.90
2023-12-15T15:53:04.963Z,75.13
2023-12-15T15:55:32.431Z,75.48
2023-12-15T15:58:01.318Z,75.66
2023-12-15T16:00:28.910Z,75.85
2023-12-15T16:02:56.532Z,76.00
2023-12-15T16:05:25.470Z,76.50
2023-12-15T16:07:53.591Z,76.71
2023-12-15T16:10:23.708Z,76.82
2023-12-15T16:12:51.162Z,77.02
2023-12-15T16:15:18.618Z,77.23
2023-12-15T16:17:47.373Z,77.35
2023-12-15T16:20:14.915Z,77.41
2023-12-15T16:22:42.668Z,77.59
2023-12-15T16:25:11.529Z,77.61
2023-12-15T16:27:39.309Z,77.71
2023-12-15T16:30:08.156Z,77.74
2023-12-15T16:32:37.193Z,77.89
2023-12-15T16:35:04.897Z,77.98
2023-12-15T16:37:32.358Z,78.15
2023-12-15T16:40:01.104Z,78.32
2023-12-15T16:42:28.567Z,78.22
2023-12-15T16:44:56.110Z,78.27
2023-12-15T16:47:24.938Z,78.41
2023-12-15T16:49:52.897Z,78.32
2023-12-15T16:52:20.627Z,78.42
2023-12-15T16:54:49.405Z,78.36
2023-12-15T16:57:16.849Z,78.43
2023-12-15T16:59:44.284Z,78.42
2023-12-15T17:02:13.267Z,78.49
2023-12-15T17:04:40.753Z,78.52
2023-12-15T17:07:08.244Z,78.53
2023-12-15T17:09:37.014Z,78.73
2023-12-15T17:12:04.892Z,78.65
2023-12-15T17:14:32.337Z,78.67
2023-12-15T17:17:01.051Z,78.68
2023-12-15T17:19:28.710Z,78.62
2023-12-15T17:21:56.290Z,78.69
2023-12-15T17:24:25.206Z,78.76
2023-12-15T17:26:52.689Z,78.80
2023-12-15T17:29:20.131Z,78.81
2023-12-15T17:31:49.284Z,78.84
2023-12-15T17:34:16.788Z,78.98
2023-12-15T17:36:44.346Z,78.91
2023-12-15T17:39:13.119Z,78.98
2023-12-15T17:41:40.569Z,78.99
2023-12-15T17:44:07.987Z,78.98
2023-12-15T17:46:36.738Z,78.92
2023-12-15T17:49:05.655Z,78.72
2023-12-15T17:51:36.188Z,78.87
2023-12-15T17:54:03.650Z,78.79
2023-12-15T17:56:31.137Z,78.83
2023-12-15T17:58:59.923Z,78.92
2023-12-15T18:01:27.530Z,78.98
2023-12-15T18:03:55.202Z,78.99
2023-12-15T18:06:23.980Z,78.89
2023-12-15T18:08:51.467Z,78.79
2023-12-15T18:11:18.964Z,78.76
2023-12-15T18:13:48.119Z,78.78
2023-12-15T18:16:15.553Z,78.70
2023-12-15T18:18:43.024Z,78.63
2023-12-15T18:21:11.951Z,78.71
2023-12-15T18:23:39.413Z,78.80
2023-12-15T18:26:06.922Z,78.80
2023-12-15T18:28:35.539Z,78.85
2023-12-15T18:31:03.058Z,78.87
2023-12-15T18:33:30.615Z,79.01
2023-12-15T18:35:59.660Z,78.84
2023-12-15T18:38:27.109Z,78.89
2023-12-15T18:40:54.584Z,78.82
2023-12-15T18:43:23.359Z,78.89
2023-12-15T18:45:50.887Z,78.95
2023-12-15T18:48:18.405Z,78.86
2023-12-15T18:50:47.201Z,78.93
2023-12-15T18:53:14.738Z,79.05
2023-12-15T18:55:42.157Z,79.17
2023-12-15T18:58:10.883Z,79.16
2023-12-15T19:00:38.563Z,79.19
2023-12-15T19:03:06.324Z,79.23
2023-12-15T19:05:35.086Z,79.14
2023-12-15T19:08:02.667Z,79.06
2023-12-15T19:10:30.128Z,79.06
2023-12-15T19:12:58.937Z,79.02
2023-12-15T19:15:26.451Z,79.14
2023-12-15T19:17:53.932Z,79.25
2023-12-15T19:20:23.202Z,79.05
2023-12-15T19:22:50.654Z,79.08
2023-12-15T19:25:18.263Z,79.14
2023-12-15T19:27:47.012Z,79.09
2023-12-15T19:30:14.509Z,79.04
2023-12-15T19:32:42.141Z,79.06
2023-12-15T19:35:11.233Z,79.00
2023-12-15T19:37:39.083Z,78.98
2023-12-15T19:40:06.763Z,78.92
2023-12-15T19:42:35.566Z,79.00
2023-12-15T19:45:03.048Z,78.92
2023-12-15T19:47:30.501Z,79.02
2023-12-15T19:49:59.312Z,78.92
2023-12-15T19:52:27.086Z,78.93
2023-12-15T19:54:54.624Z,78.91
2023-12-15T19:57:23.336Z,78.82
2023-12-15T19:59:51.175Z,78.79
2023-12-15T20:02:18.684Z,78.94
2023-12-15T20:04:47.581Z,78.97
2023-12-15T20:07:15.175Z,78.79
2023-12-15T20:09:42.705Z,78.63
2023-12-15T20:12:11.524Z,78.56
2023-12-15T20:14:38.971Z,78.62
2023-12-15T20:17:06.421Z,78.59
2023-12-15T20:19:35.345Z,78.56
2023-12-15T20:22:03.356Z,78.51
2023-12-15T20:24:30.963Z,78.51
2023-12-15T20:26:59.704Z,78.41
2023-12-15T20:29:27.135Z,78.34
2023-12-15T20:31:54.536Z,78.21
2023-12-15T20:34:23.599Z,78.07
2023-12-15T20:36:51.474Z,77.89
2023-12-15T20:39:21.792Z,77.71
2023-12-15T20:41:49.258Z,77.54
2023-12-15T20:44:16.832Z,77.36
2023-12-15T20:46:45.581Z,77.28
2023-12-15T20:49:13.201Z,77.07
2023-12-15T20:51:41.005Z,77.02
2023-12-15T20:54:09.942Z,76.87
2023-12-15T20:56:37.399Z,76.87
2023-12-15T20:59:04.833Z,76.86
2023-12-15T21:01:34.142Z,76.63
2023-12-15T21:04:01.823Z,76.48
2023-12-15T21:06:31.596Z,76.39
2023-12-15T21:08:59.075Z,76.32
2023-12-15T21:11:26.498Z,76.31
2023-12-15T21:13:55.303Z,76.08
2023-12-15T21:16:22.843Z,75.99
2023-12-15T21:18:50.593Z,76.01
2023-12-15T21:21:19.404Z,76.04
2023-12-15T21:23:47.245Z,76.09
2023-12-15T21:26:14.669Z,76.03
2023-12-15T21:28:43.221Z,76.13
2023-12-15T21:31:10.755Z,76.14
2023-12-15T21:33:38.430Z,76.17
2023-12-15T21:36:07.279Z,76.11
2023-12-15T21:38:34.843Z,76.14
2023-12-15T21:41:02.277Z,76.21
2023-12-15T21:43:31.057Z,76.27
2023-12-15T21:45:58.946Z,76.25
2023-12-15T21:48:26.472Z,76.27
2023-12-15T21:50:55.314Z,76.31
2023-12-15T21:53:22.792Z,76.40
2023-12-15T21:55:50.241Z,76.38
2023-12-15T21:58:18.998Z,76.39
2023-12-15T22:00:46.535Z,76.40
2023-12-15T22:03:14.145Z,76.41
2023-12-15T22:05:43.013Z,76.31
2023-12-15T22:08:10.458Z,76.36
2023-12-15T22:10:37.948Z,76.38
2023-12-15T22:13:08.286Z,76.44
2023-12-15T22:15:36.233Z,76.48
2023-12-15T22:18:04.979Z,76.39
2023-12-15T22:20:32.581Z,76.33
2023-12-15T22:23:00.066Z,76.18
2023-12-15T22:25:28.858Z,76.12
2023-12-15T22:27:56.366Z,76.05
2023-12-15T22:30:23.875Z,75.94
2023-12-15T22:32:52.718Z,75.96
2023-12-15T22:35:20.410Z,75.81
2023-12-15T22:37:47.855Z,75.59
2023-12-15T22:40:16.701Z,75.63
2023-12-15T22:42:44.152Z,75.43
2023-12-15T22:45:11.640Z,75.38
2023-12-15T22:47:40.652Z,75.09
2023-12-15T22:50:08.607Z,75.07
2023-12-15T22:52:36.467Z,74.93
2023-12-15T22:55:05.506Z,74.86
2023-12-15T22:57:33.082Z,74.73
2023-12-15T23:00:00.503Z,74.52
2023-12-15T23:02:29.285Z,74.65
2023-12-15T23:04:56.765Z,74.53
2023-12-15T23:07:24.448Z,74.51
2023-12-15T23:09:53.714Z,74.46
2023-12-15T23:12:21.143Z,74.40
2023-12-15T23:14:48.568Z,74.44
2023-12-15T23:17:17.260Z,74.35
2023-12-15T23:19:44.765Z,74.25
2023-12-15T23:22:12.338Z,74.15
2023-12-15T23:24:41.213Z,74.18
2023-12-15T23:27:08.653Z,74.15
2023-12-15T23:29:36.431Z,74.20
2023-12-15T23:32:05.271Z,74.34
2023-12-15T23:34:33.430Z,74.29
2023-12-15T23:37:03.377Z,74.44
2023-12-15T23:39:30.816Z,74.48
2023-12-15T23:41:58.318Z,74.45
2023-12-15T23:44:27.024Z,74.49
2023-12-15T23:46:54.549Z,74.47
2023-12-15T23:49:22.428Z,74.49
2023-12-15T23:51:51.204Z,74.42
2023-12-15T23:54:18.651Z,74.50
2023-12-15T23:56:46.206Z,74.68
2023-12-15T23:59:14.898Z,74.66
